Waskish, MN

11:29 AM CST on December 20, 2014 (GMT -0600)
Waskish Municipal | Change Station
CLOSE
Current Station
Airport
Location: Waskish,
Elevation: 1181 ft
Nearby Weather Stations
Active Advisory: Winter Weather Advisory

Elev 1181 ft 48.15 °N, 94.52 °W | Updated 20 minutes ago

Overcast
Overcast
30 °F
Feels Like 30 °F
N
0
Wind Variable Wind from North

Today
High -- | Low -- °F
--% Chance of Precip.
Yesterday
High -- | Low -- °F
Precip. -- in
8:05 AM 4:25 PM
Waning Crescent, 2% visible
Pressure 30.02 in
Visibility 2.5 miles
Clouds Scattered Clouds 800 ft
Overcast 1300 ft
Dew Point 30 °F
Humidity 100%
Rainfall 0.04 in
Snow Depth Not available.
UV 0 out of 12
Pollen .10 out of 12
Air Quality Not available.
Flu Activity Not available.
METAR KVWU 201709Z AUTO 00000KT 2 1/2SM BR SCT008 OVC013 M01/M01 A3002 RMK AO2

More Conditions Fewer Conditions

Pressure 30.02 in
Visibility 2.5 miles
Clouds Scattered Clouds 800 ft
Overcast 1300 ft
Dew Point 30 °F
Humidity 100%
Rainfall 0.04 in
Snow Depth Not available.
UV 0 out of 12
Pollen .10 out of 12
Air Quality Not available.
Flu Activity Not available.
METAR KVWU 201709Z AUTO 00000KT 2 1/2SM BR SCT008 OVC013 M01/M01 A3002 RMK AO2

More Conditions Fewer Conditions

10-Day Weather Forecast

Almanac

Astronomy

Dec. 20, 2014 Rise Set
Actual Time
Civil Twilight
Nautical Twilight
Astronomical Twilight
Moon
Length of Visible Light
Length of Day
Tomorrow will be .
, % of the Moon is Illuminated

Today's Extremes

State Highs State Lows

Community

WunderPhotos

Upload Photos

1,779,226 photos uploaded!

WunderBlogs® & News

Nearby

Air Quality

  Air Quality AQ Index Pollutant
Not available.

Snow Depth

Station Depth Elevation

Earthquake Activity

City Distance Mag. Time & Date
Minimum magnitude displayed is 2.5.

Coastal Water Temperatures

Place Temperature

Nearby Weather Stations